CSAPA KORL-KORL
Flight info
| Callsign | CSAPA |
|---|---|
| Flight time | 0h 17m |
| Altitude | 1000 |
| Route | VFR PATTERNS RWY07 |
| Aircraft | C152/L-V/N |
Departure
| Time | 2026-05-06 00:33 |
|---|---|
| Airport | Orlando Executive Airport (KORL) |
Arrival
| Time | 2026-05-06 00:50 |
|---|---|
| Airport | Orlando Executive Airport (KORL) |
| Time | Latitude | Longitude | Altitude | Speed | Heading |
|---|---|---|---|---|---|
| 2026-05-06 00:24 | 28.54820 | -81.33702 | 116 ft | 0 kts | 131° |
| 2026-05-06 00:28 | 28.54808 | -81.33686 | 116 ft | 7 kts | 133° |
| 2026-05-06 00:28 | 28.54771 | -81.33639 | 116 ft | 4 kts | 137° |
| 2026-05-06 00:28 | 28.54755 | -81.33648 | 116 ft | 7 kts | 217° |
| 2026-05-06 00:29 | 28.54723 | -81.33641 | 116 ft | 6 kts | 132° |
| 2026-05-06 00:29 | 28.54676 | -81.33585 | 116 ft | 9 kts | 149° |
| 2026-05-06 00:29 | 28.54647 | -81.33605 | 116 ft | 8 kts | 220° |
| 2026-05-06 00:29 | 28.54590 | -81.33662 | 116 ft | 14 kts | 221° |
| 2026-05-06 00:30 | 28.54512 | -81.33740 | 116 ft | 14 kts | 222° |
| 2026-05-06 00:30 | 28.54456 | -81.33802 | 116 ft | 8 kts | 225° |
| 2026-05-06 00:30 | 28.54423 | -81.33842 | 116 ft | 7 kts | 227° |
| 2026-05-06 00:30 | 28.54387 | -81.33886 | 116 ft | 7 kts | 227° |
| 2026-05-06 00:31 | 28.54361 | -81.33918 | 116 ft | 5 kts | 227° |
| 2026-05-06 00:31 | 28.54343 | -81.33933 | 116 ft | 0 kts | 181° |
| 2026-05-06 00:31 | 28.54310 | -81.33924 | 116 ft | 8 kts | 152° |
| 2026-05-06 00:32 | 28.54306 | -81.33870 | 116 ft | 7 kts | 68° |
| 2026-05-06 00:32 | 28.54376 | -81.33683 | 117 ft | 54 kts | 66° |
| 2026-05-06 00:32 | 28.54562 | -81.33187 | 267 ft | 68 kts | 66° |
| 2026-05-06 00:32 | 28.54758 | -81.32665 | 432 ft | 82 kts | 66° |
| 2026-05-06 00:33 | 28.54969 | -81.32076 | 713 ft | 75 kts | 69° |
| 2026-05-06 00:33 | 28.55321 | -81.31627 | 891 ft | 83 kts | 21° |
| 2026-05-06 00:33 | 28.55884 | -81.31685 | 1012 ft | 88 kts | 337° |
| 2026-05-06 00:33 | 28.56429 | -81.32005 | 1137 ft | 87 kts | 322° |
| 2026-05-06 00:34 | 28.56632 | -81.32590 | 1171 ft | 82 kts | 262° |
| 2026-05-06 00:34 | 28.56416 | -81.33197 | 1138 ft | 85 kts | 245° |
| 2026-05-06 00:34 | 28.56165 | -81.33806 | 1091 ft | 84 kts | 244° |
| 2026-05-06 00:34 | 28.55909 | -81.34401 | 1032 ft | 84 kts | 243° |
| 2026-05-06 00:35 | 28.55680 | -81.34991 | 990 ft | 82 kts | 246° |
| 2026-05-06 00:35 | 28.55447 | -81.35593 | 948 ft | 81 kts | 246° |
| 2026-05-06 00:35 | 28.55219 | -81.36157 | 962 ft | 77 kts | 244° |
| 2026-05-06 00:35 | 28.54995 | -81.36705 | 990 ft | 75 kts | 245° |
| 2026-05-06 00:36 | 28.54783 | -81.37247 | 1011 ft | 75 kts | 246° |
| 2026-05-06 00:36 | 28.54575 | -81.37774 | 1035 ft | 74 kts | 245° |
| 2026-05-06 00:36 | 28.54251 | -81.38210 | 1043 ft | 74 kts | 205° |
| 2026-05-06 00:36 | 28.53739 | -81.38211 | 990 ft | 78 kts | 165° |
| 2026-05-06 00:37 | 28.53255 | -81.38038 | 987 ft | 64 kts | 159° |
| 2026-05-06 00:37 | 28.52907 | -81.37719 | 875 ft | 66 kts | 120° |
| 2026-05-06 00:37 | 28.52913 | -81.37224 | 769 ft | 67 kts | 62° |
| 2026-05-06 00:37 | 28.53164 | -81.36786 | 666 ft | 62 kts | 55° |
| 2026-05-06 00:38 | 28.53373 | -81.36396 | 563 ft | 57 kts | 63° |
| 2026-05-06 00:38 | 28.53533 | -81.35973 | 483 ft | 58 kts | 69° |
| 2026-05-06 00:38 | 28.53686 | -81.35515 | 419 ft | 62 kts | 69° |
| 2026-05-06 00:38 | 28.53850 | -81.35048 | 389 ft | 66 kts | 65° |
| 2026-05-06 00:39 | 28.54022 | -81.34602 | 312 ft | 57 kts | 66° |
| 2026-05-06 00:39 | 28.54188 | -81.34171 | 208 ft | 61 kts | 65° |
| 2026-05-06 00:39 | 28.54354 | -81.33747 | 124 ft | 53 kts | 66° |
| 2026-05-06 00:39 | 28.54506 | -81.33350 | 137 ft | 67 kts | 66° |
| 2026-05-06 00:40 | 28.54680 | -81.32900 | 408 ft | 61 kts | 65° |
| 2026-05-06 00:40 | 28.54882 | -81.32410 | 585 ft | 74 kts | 66° |
| 2026-05-06 00:40 | 28.55120 | -81.31897 | 830 ft | 74 kts | 41° |
| 2026-05-06 00:40 | 28.55623 | -81.31845 | 1026 ft | 78 kts | 334° |
| 2026-05-06 00:41 | 28.56085 | -81.32146 | 1128 ft | 76 kts | 327° |
| 2026-05-06 00:41 | 28.56558 | -81.32466 | 1147 ft | 79 kts | 325° |
| 2026-05-06 00:41 | 28.56840 | -81.32982 | 1183 ft | 80 kts | 281° |
| 2026-05-06 00:41 | 28.56703 | -81.33577 | 1126 ft | 79 kts | 242° |
| 2026-05-06 00:42 | 28.56452 | -81.34119 | 1080 ft | 78 kts | 242° |
| 2026-05-06 00:42 | 28.56197 | -81.34649 | 1032 ft | 77 kts | 240° |
| 2026-05-06 00:42 | 28.55951 | -81.35199 | 975 ft | 77 kts | 245° |
| 2026-05-06 00:42 | 28.55727 | -81.35735 | 933 ft | 76 kts | 238° |
| 2026-05-06 00:43 | 28.55266 | -81.36003 | 864 ft | 77 kts | 179° |
| 2026-05-06 00:43 | 28.54779 | -81.35823 | 807 ft | 69 kts | 156° |
| 2026-05-06 00:43 | 28.54358 | -81.35595 | 660 ft | 65 kts | 153° |
| 2026-05-06 00:43 | 28.53983 | -81.35334 | 475 ft | 65 kts | 133° |
| 2026-05-06 00:44 | 28.53908 | -81.34885 | 346 ft | 62 kts | 65° |
| 2026-05-06 00:44 | 28.54097 | -81.34435 | 250 ft | 64 kts | 66° |
| 2026-05-06 00:44 | 28.54274 | -81.33962 | 164 ft | 63 kts | 67° |
| 2026-05-06 00:44 | 28.54428 | -81.33552 | 117 ft | 56 kts | 66° |
| 2026-05-06 00:45 | 28.54615 | -81.33059 | 291 ft | 65 kts | 66° |
| 2026-05-06 00:45 | 28.54813 | -81.32544 | 435 ft | 82 kts | 65° |
| 2026-05-06 00:45 | 28.55065 | -81.31984 | 681 ft | 77 kts | 50° |
| 2026-05-06 00:45 | 28.55571 | -81.31820 | 792 ft | 82 kts | 345° |
| 2026-05-06 00:46 | 28.56086 | -81.32087 | 942 ft | 80 kts | 334° |
| 2026-05-06 00:46 | 28.56511 | -81.32503 | 1004 ft | 86 kts | 295° |
| 2026-05-06 00:46 | 28.56477 | -81.33146 | 1083 ft | 86 kts | 244° |
| 2026-05-06 00:46 | 28.56213 | -81.33758 | 1132 ft | 86 kts | 244° |
| 2026-05-06 00:47 | 28.55950 | -81.34368 | 1150 ft | 86 kts | 244° |
| 2026-05-06 00:47 | 28.55680 | -81.34978 | 1148 ft | 86 kts | 243° |
| 2026-05-06 00:47 | 28.55403 | -81.35586 | 1124 ft | 87 kts | 243° |
| 2026-05-06 00:47 | 28.55132 | -81.36182 | 1098 ft | 85 kts | 242° |
| 2026-05-06 00:48 | 28.54858 | -81.36775 | 1062 ft | 84 kts | 242° |
| 2026-05-06 00:48 | 28.54449 | -81.37185 | 1020 ft | 84 kts | 188° |
| 2026-05-06 00:48 | 28.53911 | -81.37033 | 835 ft | 79 kts | 157° |
| 2026-05-06 00:48 | 28.53513 | -81.36667 | 670 ft | 69 kts | 116° |
| 2026-05-06 00:49 | 28.53460 | -81.36138 | 534 ft | 69 kts | 80° |
| 2026-05-06 00:49 | 28.53625 | -81.35627 | 443 ft | 68 kts | 64° |
| 2026-05-06 00:49 | 28.53833 | -81.35142 | 382 ft | 68 kts | 64° |
| 2026-05-06 00:49 | 28.54016 | -81.34644 | 322 ft | 69 kts | 70° |
| 2026-05-06 00:50 | 28.54201 | -81.34159 | 205 ft | 64 kts | 66° |
| 2026-05-06 00:50 | 28.54371 | -81.33712 | 118 ft | 55 kts | 67° |
| 2026-05-06 00:50 | 28.54472 | -81.33446 | 116 ft | 5 kts | 45° |
| 2026-05-06 00:50 | 28.54505 | -81.33476 | 116 ft | 12 kts | 312° |
| 2026-05-06 00:51 | 28.54554 | -81.33539 | 116 ft | 10 kts | 310° |
| 2026-05-06 00:51 | 28.54615 | -81.33623 | 116 ft | 15 kts | 310° |
| 2026-05-06 00:51 | 28.54673 | -81.33701 | 116 ft | 13 kts | 310° |
| 2026-05-06 00:51 | 28.54727 | -81.33759 | 116 ft | 11 kts | 355° |
| 2026-05-06 00:52 | 28.54782 | -81.33720 | 116 ft | 8 kts | 34° |
| 2026-05-06 00:52 | 28.54801 | -81.33691 | 116 ft | 0 kts | 133° |